createdAt,value
2017-12-16T00:00:57.491Z,16.50
2017-12-16T00:02:00.444Z,16.00
2017-12-16T00:03:03.299Z,18.50
2017-12-16T00:04:06.241Z,18.50
2017-12-16T00:05:09.571Z,20.00
2017-12-16T00:06:13.077Z,17.50
2017-12-16T00:07:16.059Z,20.50
2017-12-16T00:08:19.010Z,16.00
2017-12-16T00:09:21.995Z,20.00
2017-12-16T00:10:24.943Z,20.00
2017-12-16T00:11:28.343Z,21.50
2017-12-16T00:12:31.297Z,19.00
2017-12-16T00:13:34.282Z,16.00
2017-12-16T00:14:38.159Z,23.00
2017-12-16T00:15:41.199Z,20.50
2017-12-16T00:16:44.178Z,21.50
2017-12-16T00:17:47.701Z,24.50
2017-12-16T00:18:50.642Z,19.50
2017-12-16T00:19:53.547Z,19.50
2017-12-16T00:20:56.475Z,20.00
2017-12-16T00:21:59.418Z,20.00
2017-12-16T00:23:02.356Z,16.50
2017-12-16T00:24:05.625Z,19.00
2017-12-16T00:25:08.784Z,20.50
2017-12-16T00:26:11.816Z,21.50
2017-12-16T00:27:14.816Z,15.00
2017-12-16T00:28:17.770Z,21.50
2017-12-16T00:29:20.766Z,19.00
2017-12-16T00:30:24.119Z,20.00
2017-12-16T00:31:27.074Z,21.50
2017-12-16T00:32:30.075Z,16.00
2017-12-16T00:33:33.018Z,14.00
2017-12-16T00:34:35.947Z,18.50
2017-12-16T00:35:38.913Z,19.50
2017-12-16T00:36:42.167Z,15.00
2017-12-16T00:37:45.143Z,13.50
2017-12-16T00:38:48.059Z,17.50
2017-12-16T00:39:51.043Z,13.50
2017-12-16T00:40:53.999Z,14.00
2017-12-16T00:41:57.116Z,16.00
2017-12-16T00:43:00.478Z,20.00
2017-12-16T00:44:03.429Z,16.00
2017-12-16T00:45:08.560Z,16.50
2017-12-16T00:46:11.519Z,15.00
2017-12-16T00:47:14.498Z,18.00
2017-12-16T00:48:17.452Z,18.00
2017-12-16T00:49:20.717Z,19.00
2017-12-16T00:50:23.613Z,20.50
2017-12-16T00:51:26.490Z,19.00
2017-12-16T00:52:29.454Z,18.00
2017-12-16T00:53:32.385Z,15.50
2017-12-16T00:54:35.297Z,13.50
2017-12-16T00:55:38.626Z,20.00
2017-12-16T00:56:41.600Z,17.50
2017-12-16T00:57:44.530Z,15.00
2017-12-16T00:58:47.440Z,15.50
2017-12-16T00:59:50.417Z,16.00
2017-12-16T01:00:53.348Z,17.50
2017-12-16T01:01:56.748Z,14.00
2017-12-16T01:02:59.649Z,12.50
2017-12-16T01:04:02.630Z,14.00
2017-12-16T01:05:05.536Z,13.50
2017-12-16T01:06:08.817Z,19.50
2017-12-16T01:07:11.705Z,17.50
2017-12-16T01:08:15.083Z,15.00
2017-12-16T01:09:18.053Z,17.50
2017-12-16T01:10:20.981Z,16.50
2017-12-16T01:11:23.979Z,16.00
2017-12-16T01:12:26.937Z,20.00
2017-12-16T01:13:29.792Z,17.00
2017-12-16T01:14:33.700Z,17.50
2017-12-16T01:15:37.622Z,19.00
2017-12-16T01:16:40.486Z,16.50
2017-12-16T01:17:43.383Z,18.00
2017-12-16T01:18:46.293Z,17.00
2017-12-16T01:19:49.117Z,18.00
2017-12-16T01:20:52.405Z,20.00
2017-12-16T01:21:55.250Z,21.50
2017-12-16T01:22:58.207Z,18.00
2017-12-16T01:24:01.108Z,18.00
2017-12-16T01:25:04.091Z,20.00
2017-12-16T01:26:07.081Z,18.00
2017-12-16T01:27:10.808Z,19.50
2017-12-16T01:28:13.821Z,15.00
2017-12-16T01:29:16.810Z,13.50
2017-12-16T01:30:19.774Z,18.50
2017-12-16T01:31:22.728Z,14.00
2017-12-16T01:32:26.446Z,18.00
2017-12-16T01:33:29.830Z,12.00
2017-12-16T01:34:32.792Z,14.50
2017-12-16T01:35:36.251Z,12.00
2017-12-16T01:36:39.230Z,18.00
2017-12-16T01:37:42.305Z,14.00
2017-12-16T01:38:45.305Z,18.00
2017-12-16T01:39:48.260Z,17.50
2017-12-16T01:40:51.264Z,14.50
2017-12-16T01:41:54.187Z,19.00
2017-12-16T01:42:58.100Z,20.50
2017-12-16T01:44:01.063Z,18.00
2017-12-16T01:45:04.309Z,17.50
2017-12-16T01:46:07.291Z,17.50
2017-12-16T01:47:10.261Z,20.50
2017-12-16T01:48:13.413Z,18.00
2017-12-16T01:49:16.469Z,15.00
2017-12-16T01:50:19.420Z,18.00
2017-12-16T01:51:22.834Z,16.50
2017-12-16T01:52:25.859Z,14.50
2017-12-16T01:53:28.784Z,18.00
2017-12-16T01:54:31.695Z,17.50
2017-12-16T01:55:34.635Z,15.00
2017-12-16T01:56:37.584Z,17.50
2017-12-16T01:57:40.846Z,16.00
2017-12-16T01:58:43.806Z,14.50
2017-12-16T01:59:46.816Z,14.00
2017-12-16T02:00:49.812Z,16.00
2017-12-16T02:01:52.747Z,18.00
2017-12-16T02:02:56.152Z,18.00
2017-12-16T02:03:59.712Z,21.00
2017-12-16T02:05:02.765Z,14.00
2017-12-16T02:06:05.724Z,14.50
2017-12-16T02:07:08.841Z,13.50
2017-12-16T02:08:11.798Z,15.50
2017-12-16T02:09:14.735Z,13.50
2017-12-16T02:10:18.266Z,14.00
2017-12-16T02:11:21.217Z,16.50
2017-12-16T02:12:24.170Z,18.00
2017-12-16T02:13:27.099Z,15.00
2017-12-16T02:14:30.160Z,17.50
2017-12-16T02:15:33.070Z,11.00
2017-12-16T02:16:36.419Z,14.00
2017-12-16T02:17:39.412Z,18.50
2017-12-16T02:18:42.356Z,14.00
2017-12-16T02:19:45.317Z,15.00
2017-12-16T02:20:48.371Z,17.00
2017-12-16T02:21:51.335Z,14.00
2017-12-16T02:22:54.751Z,17.00
2017-12-16T02:23:57.707Z,16.00
2017-12-16T02:25:00.633Z,14.00
2017-12-16T02:26:03.599Z,16.00
2017-12-16T02:27:06.631Z,15.50
2017-12-16T02:28:09.681Z,15.00
2017-12-16T02:29:12.978Z,14.50
2017-12-16T02:30:15.955Z,14.50
2017-12-16T02:31:18.881Z,12.50
2017-12-16T02:32:21.867Z,13.50
2017-12-16T02:33:24.812Z,15.00
2017-12-16T02:34:27.922Z,13.00
2017-12-16T02:35:31.411Z,13.50
2017-12-16T02:36:34.480Z,20.00
2017-12-16T02:37:37.445Z,16.50
2017-12-16T02:38:40.404Z,14.00
2017-12-16T02:39:43.429Z,16.00
2017-12-16T02:40:46.388Z,17.50
2017-12-16T02:41:49.655Z,15.00
2017-12-16T02:42:52.553Z,16.00
2017-12-16T02:43:55.674Z,18.00
2017-12-16T02:44:58.750Z,13.50
2017-12-16T02:46:01.804Z,17.00
2017-12-16T02:47:04.756Z,13.50
2017-12-16T02:48:08.434Z,12.00
2017-12-16T02:49:11.449Z,13.50
2017-12-16T02:50:14.415Z,12.00
2017-12-16T02:51:17.445Z,17.00
2017-12-16T02:52:20.433Z,16.00
2017-12-16T02:53:23.463Z,14.00
2017-12-16T02:54:26.845Z,15.50
2017-12-16T02:55:29.813Z,18.50
2017-12-16T02:56:32.737Z,13.50
2017-12-16T02:57:35.717Z,15.00
2017-12-16T02:58:38.643Z,16.00
2017-12-16T02:59:41.604Z,14.00
2017-12-16T03:00:44.822Z,16.00
2017-12-16T03:01:47.791Z,14.00
2017-12-16T03:02:50.768Z,16.50
2017-12-16T03:03:53.777Z,13.50
2017-12-16T03:04:56.786Z,15.00
2017-12-16T03:05:59.739Z,11.50
2017-12-16T03:07:03.187Z,11.00
2017-12-16T03:08:08.236Z,14.50
2017-12-16T03:09:13.924Z,16.00
2017-12-16T03:10:17.271Z,12.50
2017-12-16T03:11:20.301Z,14.50
2017-12-16T03:12:23.221Z,11.50
2017-12-16T03:13:26.454Z,11.50
2017-12-16T03:14:29.383Z,8.00
2017-12-16T03:15:32.325Z,16.00
2017-12-16T03:16:35.274Z,14.00
2017-12-16T03:17:38.283Z,11.50
2017-12-16T03:18:41.256Z,14.50
2017-12-16T03:19:44.627Z,10.50
2017-12-16T03:20:47.572Z,11.50
2017-12-16T03:21:50.542Z,15.00
2017-12-16T03:22:53.479Z,13.50
2017-12-16T03:23:56.438Z,14.00
2017-12-16T03:24:59.404Z,17.50
2017-12-16T03:26:02.373Z,14.00
2017-12-16T03:27:05.356Z,12.50
2017-12-16T03:28:08.314Z,11.50
2017-12-16T03:29:11.217Z,15.50
2017-12-16T03:30:14.192Z,10.50
2017-12-16T03:31:17.676Z,12.50
2017-12-16T03:32:20.613Z,11.50
2017-12-16T03:33:24.133Z,11.50
2017-12-16T03:34:27.072Z,8.50
2017-12-16T03:35:30.028Z,14.00
2017-12-16T03:36:32.953Z,12.50
2017-12-16T03:37:36.332Z,11.00
2017-12-16T03:38:39.267Z,12.00
2017-12-16T03:39:43.091Z,15.50
2017-12-16T03:40:46.079Z,13.50
2017-12-16T03:41:49.077Z,12.00
2017-12-16T03:42:52.156Z,13.50
2017-12-16T03:43:55.592Z,11.00
2017-12-16T03:44:58.600Z,11.50
2017-12-16T03:46:01.575Z,16.00
2017-12-16T03:47:04.537Z,14.00
2017-12-16T03:48:07.521Z,13.50
2017-12-16T03:49:10.523Z,10.50
2017-12-16T03:50:13.510Z,14.00
2017-12-16T03:51:16.486Z,15.00
2017-12-16T03:52:19.419Z,12.50
2017-12-16T03:53:22.420Z,13.50
2017-12-16T03:54:25.362Z,14.00
2017-12-16T03:55:28.672Z,16.00
2017-12-16T03:56:31.637Z,16.00
2017-12-16T03:57:34.531Z,13.00
2017-12-16T03:58:37.584Z,13.50
2017-12-16T03:59:40.535Z,14.00
2017-12-16T04:00:43.507Z,13.00
2017-12-16T04:01:46.521Z,11.00
2017-12-16T04:02:49.475Z,12.50
2017-12-16T04:03:52.430Z,10.50
2017-12-16T04:04:55.383Z,15.00
2017-12-16T04:05:58.816Z,10.00
2017-12-16T04:07:01.784Z,14.00
2017-12-16T04:08:05.113Z,11.50
2017-12-16T04:09:08.051Z,14.50
2017-12-16T04:10:10.956Z,11.00
2017-12-16T04:11:13.896Z,11.00
2017-12-16T04:12:16.873Z,10.50
2017-12-16T04:13:19.824Z,12.00
2017-12-16T04:14:23.173Z,11.00
2017-12-16T04:15:26.116Z,12.00
2017-12-16T04:16:29.042Z,10.50
2017-12-16T04:17:31.992Z,14.50
2017-12-16T04:18:35.010Z,14.00
2017-12-16T04:19:37.972Z,14.00
2017-12-16T04:20:41.303Z,11.50
2017-12-16T04:21:44.249Z,14.50
2017-12-16T04:22:47.258Z,10.50
2017-12-16T04:23:51.703Z,12.00
2017-12-16T04:24:54.708Z,13.50
2017-12-16T04:25:57.647Z,11.50
2017-12-16T04:27:01.171Z,13.50
2017-12-16T04:28:04.153Z,14.00
2017-12-16T04:29:07.093Z,12.50
2017-12-16T04:30:10.045Z,17.00
2017-12-16T04:31:13.018Z,8.50
2017-12-16T04:32:15.962Z,12.50
2017-12-16T04:33:18.906Z,12.00
2017-12-16T04:34:21.865Z,15.00
2017-12-16T04:35:24.798Z,11.00
2017-12-16T04:36:27.743Z,11.50
2017-12-16T04:37:30.671Z,9.00
2017-12-16T04:38:33.975Z,9.50
2017-12-16T04:39:37.144Z,10.50
2017-12-16T04:40:40.140Z,12.00
2017-12-16T04:41:43.117Z,10.00
2017-12-16T04:42:46.127Z,12.50
2017-12-16T04:43:49.075Z,9.50
2017-12-16T04:44:52.495Z,13.00
2017-12-16T04:45:55.431Z,16.00
2017-12-16T04:46:58.403Z,13.00
2017-12-16T04:48:01.354Z,9.00
2017-12-16T04:49:04.211Z,10.00
2017-12-16T04:50:07.081Z,11.50
2017-12-16T04:51:10.344Z,14.50
2017-12-16T04:52:13.280Z,13.00
2017-12-16T04:53:16.238Z,15.50
2017-12-16T04:54:19.242Z,7.50
2017-12-16T04:55:23.011Z,18.50
2017-12-16T04:56:25.934Z,12.50
2017-12-16T04:57:29.204Z,14.00
2017-12-16T04:58:32.225Z,12.00
2017-12-16T04:59:35.219Z,12.00
2017-12-16T05:00:38.312Z,11.50
2017-12-16T05:01:41.297Z,14.00
2017-12-16T05:02:44.283Z,12.50
2017-12-16T05:03:47.670Z,11.50
2017-12-16T05:04:50.642Z,12.00
2017-12-16T05:05:53.584Z,8.00
2017-12-16T05:06:56.617Z,11.00
2017-12-16T05:07:59.577Z,12.00
2017-12-16T05:09:02.597Z,14.50
2017-12-16T05:10:05.824Z,12.00
2017-12-16T05:11:08.763Z,12.00
2017-12-16T05:12:11.767Z,12.00
2017-12-16T05:13:15.843Z,13.00
2017-12-16T05:14:18.803Z,11.50
2017-12-16T05:15:21.820Z,16.00
2017-12-16T05:16:25.094Z,12.00
2017-12-16T05:17:28.115Z,13.50
2017-12-16T05:18:31.055Z,12.50
2017-12-16T05:19:33.994Z,10.00
2017-12-16T05:20:37.023Z,9.50
2017-12-16T05:21:39.981Z,10.00
2017-12-16T05:22:43.455Z,8.00
2017-12-16T05:23:46.468Z,15.50
2017-12-16T05:24:49.588Z,10.00
2017-12-16T05:25:52.544Z,12.00
2017-12-16T05:26:55.664Z,15.50
2017-12-16T05:27:58.622Z,13.50
2017-12-16T05:29:02.119Z,11.00
2017-12-16T05:30:05.067Z,13.00
2017-12-16T05:31:08.098Z,13.50
2017-12-16T05:32:11.063Z,12.00
2017-12-16T05:33:14.057Z,13.50
2017-12-16T05:34:17.046Z,12.00
2017-12-16T05:35:20.319Z,16.00
2017-12-16T05:36:23.325Z,18.00
2017-12-16T05:37:26.261Z,16.50
2017-12-16T05:38:29.224Z,12.50
2017-12-16T05:39:32.155Z,14.00
2017-12-16T05:40:35.098Z,11.50
2017-12-16T05:41:38.361Z,9.50
2017-12-16T05:42:41.380Z,15.50
2017-12-16T05:43:44.332Z,15.00
2017-12-16T05:44:47.252Z,16.00
2017-12-16T05:45:50.174Z,13.50
2017-12-16T05:46:53.052Z,15.00
2017-12-16T05:47:56.411Z,12.00
2017-12-16T05:48:59.361Z,13.00
2017-12-16T05:50:02.308Z,14.00
2017-12-16T05:51:05.256Z,12.00
2017-12-16T05:52:08.233Z,13.00
2017-12-16T05:53:11.167Z,15.50
2017-12-16T05:54:14.517Z,12.00
2017-12-16T05:55:17.463Z,13.00
2017-12-16T05:56:20.435Z,15.00
2017-12-16T05:57:23.432Z,14.50
2017-12-16T05:58:26.383Z,12.50
2017-12-16T05:59:29.329Z,12.00
2017-12-16T06:00:32.793Z,11.50
2017-12-16T06:01:35.751Z,14.00
2017-12-16T06:02:38.732Z,13.00
2017-12-16T06:03:41.695Z,11.50
2017-12-16T06:04:44.681Z,14.00
2017-12-16T06:05:47.664Z,15.50
2017-12-16T06:06:51.063Z,12.50
2017-12-16T06:07:54.008Z,13.00
2017-12-16T06:08:57.773Z,16.00
2017-12-16T06:10:00.738Z,13.50
2017-12-16T06:11:03.704Z,11.00
2017-12-16T06:12:06.655Z,10.50
2017-12-16T06:13:10.107Z,16.00
2017-12-16T06:14:13.465Z,13.50
2017-12-16T06:15:16.454Z,14.50
2017-12-16T06:16:19.430Z,14.50
2017-12-16T06:17:22.375Z,15.00
2017-12-16T06:18:25.695Z,12.00
2017-12-16T06:19:29.050Z,15.50
2017-12-16T06:20:32.519Z,13.50
2017-12-16T06:21:35.520Z,14.00
2017-12-16T06:22:38.518Z,17.00
2017-12-16T06:23:41.512Z,17.00
2017-12-16T06:24:44.935Z,14.00
2017-12-16T06:25:47.892Z,13.50
2017-12-16T06:26:51.015Z,16.00
2017-12-16T06:27:53.971Z,14.00
2017-12-16T06:28:56.895Z,15.00
2017-12-16T06:29:59.855Z,13.00
2017-12-16T06:31:04.722Z,13.00
2017-12-16T06:32:07.705Z,20.50
2017-12-16T06:33:10.605Z,15.50
2017-12-16T06:34:13.698Z,14.00
2017-12-16T06:35:16.706Z,9.00
2017-12-16T06:36:19.619Z,11.00
2017-12-16T06:37:22.962Z,10.00
2017-12-16T06:38:25.910Z,12.50
2017-12-16T06:39:28.907Z,11.00
2017-12-16T06:40:32.022Z,18.50
2017-12-16T06:41:34.942Z,12.00
2017-12-16T06:42:37.958Z,12.00
2017-12-16T06:43:41.157Z,15.50
2017-12-16T06:44:44.177Z,14.00
2017-12-16T06:45:47.182Z,14.00
2017-12-16T06:46:50.158Z,14.00
2017-12-16T06:47:53.150Z,13.00
2017-12-16T06:48:56.137Z,11.00
2017-12-16T06:49:59.540Z,17.50
2017-12-16T06:51:02.502Z,12.50
2017-12-16T06:52:05.464Z,16.50
2017-12-16T06:53:08.381Z,14.00
2017-12-16T06:54:11.337Z,10.50
2017-12-16T06:55:14.374Z,14.00
2017-12-16T06:56:17.755Z,15.50
2017-12-16T06:57:20.766Z,16.00
2017-12-16T06:58:23.732Z,14.50
2017-12-16T06:59:26.749Z,14.00
2017-12-16T07:00:29.652Z,16.50
2017-12-16T07:01:32.581Z,13.00
2017-12-16T07:02:36.239Z,16.50
2017-12-16T07:03:40.339Z,13.00
2017-12-16T07:04:43.267Z,15.50
2017-12-16T07:05:46.256Z,16.00
2017-12-16T07:06:49.203Z,15.00
2017-12-16T07:07:52.243Z,15.00
2017-12-16T07:08:55.534Z,13.00
2017-12-16T07:09:58.511Z,14.50
2017-12-16T07:11:01.815Z,17.50
2017-12-16T07:12:04.798Z,17.00
2017-12-16T07:13:07.756Z,14.50
2017-12-16T07:14:10.748Z,11.50
2017-12-16T07:15:14.181Z,13.00
2017-12-16T07:16:17.192Z,15.00
2017-12-16T07:17:20.121Z,14.50
2017-12-16T07:18:23.110Z,14.00
2017-12-16T07:19:26.074Z,13.00
2017-12-16T07:20:29.997Z,16.00
2017-12-16T07:21:33.461Z,14.00
2017-12-16T07:22:36.442Z,13.00
2017-12-16T07:23:39.363Z,14.00
2017-12-16T07:24:42.336Z,12.00
2017-12-16T07:25:45.303Z,18.00
2017-12-16T07:26:48.308Z,10.50
2017-12-16T07:27:51.746Z,13.00
2017-12-16T07:28:54.672Z,18.00
2017-12-16T07:29:57.628Z,16.00
2017-12-16T07:31:00.828Z,16.50
2017-12-16T07:32:03.909Z,13.00
2017-12-16T07:33:06.878Z,12.00
2017-12-16T07:34:10.214Z,10.50
2017-12-16T07:35:13.208Z,13.50
2017-12-16T07:36:16.270Z,15.50
2017-12-16T07:37:19.278Z,13.50
2017-12-16T07:38:22.227Z,15.00
2017-12-16T07:39:25.320Z,14.00
2017-12-16T07:40:28.712Z,16.50
2017-12-16T07:41:31.683Z,16.00
2017-12-16T07:42:34.692Z,15.00
2017-12-16T07:43:37.678Z,13.50
2017-12-16T07:44:40.616Z,12.50
2017-12-16T07:45:44.538Z,11.50
2017-12-16T07:46:47.943Z,13.00
2017-12-16T07:47:51.660Z,18.00
2017-12-16T07:48:55.195Z,13.00
2017-12-16T07:49:58.142Z,15.00
2017-12-16T07:51:01.960Z,15.50
2017-12-16T07:52:04.914Z,12.50
2017-12-16T07:53:08.338Z,15.50
2017-12-16T07:54:11.446Z,14.50
2017-12-16T07:55:16.264Z,21.50
2017-12-16T07:56:19.264Z,19.50
2017-12-16T07:57:22.123Z,17.50
2017-12-16T07:58:25.134Z,17.50
2017-12-16T07:59:28.617Z,14.50
2017-12-16T08:00:31.571Z,12.50
2017-12-16T08:01:34.610Z,17.50
2017-12-16T08:02:37.586Z,15.50
2017-12-16T08:03:40.481Z,16.00
2017-12-16T08:04:43.366Z,15.50
2017-12-16T08:05:46.812Z,18.50
2017-12-16T08:06:49.816Z,12.50
2017-12-16T08:07:52.755Z,21.50
2017-12-16T08:08:55.716Z,16.50
2017-12-16T08:09:58.709Z,14.50
2017-12-16T08:11:01.703Z,13.00
2017-12-16T08:12:05.094Z,14.00
2017-12-16T08:13:08.040Z,17.50
2017-12-16T08:14:11.087Z,14.00
2017-12-16T08:15:14.044Z,18.50
2017-12-16T08:16:17.035Z,14.50
2017-12-16T08:17:20.128Z,17.50
2017-12-16T08:18:23.551Z,13.50
2017-12-16T08:19:26.513Z,14.50
2017-12-16T08:20:29.539Z,18.00
2017-12-16T08:21:32.564Z,15.00
2017-12-16T08:22:36.142Z,15.00
2017-12-16T08:23:39.091Z,15.50
2017-12-16T08:24:42.620Z,12.50
2017-12-16T08:25:45.589Z,18.00
2017-12-16T08:26:48.616Z,14.50
2017-12-16T08:27:52.145Z,16.00
2017-12-16T08:28:55.138Z,15.00
2017-12-16T08:29:58.499Z,16.50
2017-12-16T08:31:01.503Z,13.50
2017-12-16T08:32:04.494Z,12.00
2017-12-16T08:33:07.469Z,14.50
2017-12-16T08:34:10.442Z,13.00
2017-12-16T08:35:13.471Z,15.00
2017-12-16T08:36:17.994Z,15.00
2017-12-16T08:37:20.978Z,12.50
2017-12-16T08:38:24.049Z,13.00
2017-12-16T08:39:27.180Z,10.50
2017-12-16T08:40:30.168Z,12.50
2017-12-16T08:41:33.072Z,13.00
2017-12-16T08:42:36.370Z,16.50
2017-12-16T08:43:39.421Z,13.00
2017-12-16T08:44:42.446Z,12.00
2017-12-16T08:45:45.403Z,14.00
2017-12-16T08:46:48.392Z,18.00
2017-12-16T08:47:51.410Z,18.50
2017-12-16T08:48:54.693Z,20.00
2017-12-16T08:49:57.773Z,17.50
2017-12-16T08:51:00.692Z,11.00
2017-12-16T08:52:03.628Z,9.50
2017-12-16T08:53:06.656Z,18.00
2017-12-16T08:54:09.583Z,11.00
2017-12-16T08:55:12.876Z,17.00
2017-12-16T08:56:15.779Z,14.50
2017-12-16T08:57:18.791Z,17.00
2017-12-16T08:58:21.779Z,11.00
2017-12-16T08:59:24.745Z,15.50
2017-12-16T09:00:27.697Z,13.00
2017-12-16T09:01:30.728Z,14.00
2017-12-16T09:02:33.742Z,12.50
2017-12-16T09:03:36.805Z,16.00
2017-12-16T09:04:39.791Z,11.50
2017-12-16T09:05:42.888Z,14.50
2017-12-16T09:06:46.181Z,16.00
2017-12-16T09:07:49.169Z,14.00
2017-12-16T09:08:53.578Z,12.50
2017-12-16T09:09:56.521Z,13.00
2017-12-16T09:10:59.506Z,11.50
2017-12-16T09:12:02.372Z,9.00
2017-12-16T09:13:05.689Z,16.50
2017-12-16T09:14:08.747Z,12.00
2017-12-16T09:15:11.703Z,15.00
2017-12-16T09:16:14.707Z,17.50
2017-12-16T09:17:17.697Z,16.50
2017-12-16T09:18:20.739Z,15.00
2017-12-16T09:19:24.111Z,14.00
2017-12-16T09:20:27.193Z,14.50
2017-12-16T09:21:30.175Z,12.00
2017-12-16T09:22:33.137Z,17.00
2017-12-16T09:23:36.155Z,18.00
2017-12-16T09:24:40.026Z,11.00
2017-12-16T09:25:43.454Z,13.00
2017-12-16T09:26:46.451Z,15.50
2017-12-16T09:27:49.427Z,14.50
2017-12-16T09:28:52.417Z,18.00
2017-12-16T09:29:55.367Z,13.00
2017-12-16T09:30:58.363Z,15.00
2017-12-16T09:32:01.869Z,21.50
2017-12-16T09:33:04.912Z,17.00
2017-12-16T09:34:07.894Z,15.00
2017-12-16T09:35:10.908Z,12.00
2017-12-16T09:36:13.993Z,15.50
2017-12-16T09:37:16.977Z,12.00
2017-12-16T09:38:20.426Z,16.00
2017-12-16T09:39:23.410Z,12.50
2017-12-16T09:40:26.449Z,16.50
2017-12-16T09:41:29.530Z,11.00
2017-12-16T09:42:32.557Z,14.00
2017-12-16T09:43:35.533Z,14.00
2017-12-16T09:44:38.853Z,14.00
2017-12-16T09:45:43.251Z,15.50
2017-12-16T09:46:47.320Z,14.00
2017-12-16T09:47:50.376Z,14.50
2017-12-16T09:48:53.292Z,19.00
2017-12-16T09:49:56.627Z,16.00
2017-12-16T09:50:59.823Z,13.50
2017-12-16T09:52:02.781Z,17.50
2017-12-16T09:53:05.722Z,17.00
2017-12-16T09:54:08.709Z,14.50
2017-12-16T09:55:11.592Z,16.00
2017-12-16T09:56:15.677Z,13.50
2017-12-16T09:57:18.916Z,14.50
2017-12-16T09:58:21.855Z,15.50
2017-12-16T09:59:24.705Z,14.00
2017-12-16T10:00:27.610Z,11.00
2017-12-16T10:01:30.489Z,14.00
2017-12-16T10:02:33.587Z,17.50
2017-12-16T10:03:37.189Z,13.50
2017-12-16T10:04:40.301Z,19.50
2017-12-16T10:05:43.582Z,19.00
2017-12-16T10:06:46.830Z,14.00
2017-12-16T10:07:49.848Z,16.50
2017-12-16T10:08:52.886Z,16.50
2017-12-16T10:09:56.216Z,14.00
2017-12-16T10:10:59.725Z,19.50
2017-12-16T10:12:02.637Z,12.50
2017-12-16T10:13:05.689Z,14.50
2017-12-16T10:14:08.663Z,14.50
2017-12-16T10:15:12.449Z,14.50
2017-12-16T10:16:15.932Z,14.50
2017-12-16T10:17:19.335Z,15.00
2017-12-16T10:18:22.397Z,14.00
2017-12-16T10:19:27.129Z,14.00
2017-12-16T10:20:30.531Z,11.50
2017-12-16T10:21:34.068Z,11.50
2017-12-16T10:22:37.194Z,12.50
2017-12-16T10:23:40.346Z,13.50
2017-12-16T10:24:43.426Z,17.50
2017-12-16T10:25:47.330Z,12.50
2017-12-16T10:26:51.012Z,12.50
2017-12-16T10:27:55.224Z,12.00
2017-12-16T10:28:59.970Z,12.50
2017-12-16T10:30:04.303Z,11.50
2017-12-16T10:31:08.325Z,15.00
2017-12-16T10:32:11.425Z,18.50
2017-12-16T10:33:14.603Z,14.00
2017-12-16T10:34:18.299Z,11.00
2017-12-16T10:35:21.906Z,13.00
2017-12-16T10:36:25.696Z,13.50
2017-12-16T10:37:30.234Z,14.00
2017-12-16T10:38:33.315Z,14.00
2017-12-16T10:39:36.547Z,8.00
2017-12-16T10:40:40.870Z,11.00
2017-12-16T10:41:45.004Z,12.50
2017-12-16T10:42:50.982Z,14.00
2017-12-16T10:43:55.569Z,12.00
2017-12-16T10:44:59.365Z,17.00
2017-12-16T10:46:03.579Z,12.50
2017-12-16T10:47:08.373Z,17.00
2017-12-16T10:48:12.171Z,8.50
2017-12-16T10:49:16.657Z,8.00
2017-12-16T10:50:20.055Z,12.50
2017-12-16T10:51:23.043Z,12.00
2017-12-16T10:52:26.141Z,13.50
2017-12-16T10:53:29.966Z,10.50
2017-12-16T10:54:33.358Z,9.50
2017-12-16T10:55:36.927Z,8.50
2017-12-16T10:56:41.557Z,12.00
2017-12-16T10:57:46.685Z,12.00
2017-12-16T10:58:50.858Z,13.00
2017-12-16T10:59:56.382Z,13.50
2017-12-16T11:01:02.271Z,17.50
2017-12-16T11:02:06.196Z,12.00
2017-12-16T11:03:09.804Z,13.00
2017-12-16T11:04:13.003Z,13.50
2017-12-16T11:05:17.542Z,16.50
2017-12-16T11:06:22.219Z,16.50
2017-12-16T11:07:26.547Z,15.00
2017-12-16T11:08:29.793Z,14.00
2017-12-16T11:09:33.809Z,8.50
2017-12-16T11:10:37.983Z,12.50
2017-12-16T11:11:41.741Z,14.00
2017-12-16T11:12:47.404Z,14.00
2017-12-16T11:13:52.850Z,12.50
2017-12-16T11:14:56.322Z,9.50
2017-12-16T11:15:59.780Z,11.00
2017-12-16T11:17:03.943Z,15.50
2017-12-16T11:18:08.929Z,14.50
2017-12-16T11:19:12.018Z,10.00
2017-12-16T11:20:15.401Z,12.50
2017-12-16T11:21:18.619Z,16.50
2017-12-16T11:22:22.475Z,9.50
2017-12-16T11:23:26.749Z,11.50
2017-12-16T11:24:31.060Z,17.00
2017-12-16T11:25:34.699Z,11.00
2017-12-16T11:26:37.680Z,8.50
2017-12-16T11:27:41.178Z,12.00
2017-12-16T11:28:45.463Z,12.00
2017-12-16T11:29:49.770Z,12.00
2017-12-16T11:30:53.464Z,8.00
2017-12-16T11:31:57.199Z,8.00
2017-12-16T11:33:01.938Z,12.00
2017-12-16T11:34:06.732Z,10.00
2017-12-16T11:35:11.285Z,11.00
2017-12-16T11:36:15.266Z,10.00
2017-12-16T11:37:19.135Z,10.00
2017-12-16T11:38:23.661Z,12.50
2017-12-16T11:39:27.195Z,8.00
2017-12-16T11:40:31.886Z,11.50
2017-12-16T11:41:37.933Z,8.50
2017-12-16T11:42:41.380Z,8.00
2017-12-16T11:43:46.852Z,9.00
2017-12-16T11:44:50.808Z,9.50
2017-12-16T11:45:55.112Z,13.00
2017-12-16T11:47:00.398Z,12.00
2017-12-16T11:48:04.032Z,9.50
2017-12-16T11:49:08.184Z,9.00
2017-12-16T11:50:12.778Z,11.50
2017-12-16T11:51:16.838Z,12.00
2017-12-16T11:52:21.104Z,10.00
2017-12-16T11:53:25.481Z,7.00
2017-12-16T11:54:30.638Z,10.50
2017-12-16T11:55:35.545Z,9.50
2017-12-16T11:56:40.173Z,7.50
2017-12-16T11:57:44.501Z,10.00
2017-12-16T11:58:49.398Z,10.00
2017-12-16T11:59:52.520Z,8.00
2017-12-16T12:00:58.746Z,4.50
2017-12-16T12:02:03.881Z,7.50
2017-12-16T12:03:08.315Z,11.00
2017-12-16T12:04:12.720Z,8.00
2017-12-16T12:05:17.640Z,8.00
2017-12-16T12:06:21.863Z,8.50
2017-12-16T12:07:27.092Z,7.00
2017-12-16T12:08:32.930Z,9.00
2017-12-16T12:09:38.037Z,11.50
2017-12-16T12:10:43.163Z,10.50
2017-12-16T12:11:47.983Z,11.00
2017-12-16T12:12:53.412Z,7.50
2017-12-16T12:13:57.380Z,11.00
2017-12-16T12:15:03.273Z,13.50
2017-12-16T12:16:07.525Z,11.50
2017-12-16T12:17:12.491Z,10.00
2017-12-16T12:18:17.697Z,10.00
2017-12-16T12:19:22.843Z,12.50
2017-12-16T12:20:27.672Z,11.50
2017-12-16T12:21:33.363Z,13.00
2017-12-16T12:22:38.851Z,10.00
2017-12-16T12:23:44.346Z,8.00
2017-12-16T12:24:49.536Z,8.50
2017-12-16T12:25:54.085Z,12.00
2017-12-16T12:26:59.371Z,11.00
2017-12-16T12:28:04.291Z,10.00
2017-12-16T12:29:08.437Z,7.00
2017-12-16T12:30:13.760Z,12.00
2017-12-16T12:31:19.101Z,8.50
2017-12-16T12:32:27.275Z,10.50
2017-12-16T12:33:32.314Z,8.50
2017-12-16T12:34:39.085Z,9.00
2017-12-16T12:35:43.907Z,8.00
2017-12-16T12:36:48.960Z,8.50
2017-12-16T12:37:55.994Z,6.00
2017-12-16T12:39:01.110Z,11.00
2017-12-16T12:40:06.244Z,7.50
2017-12-16T12:41:10.294Z,10.00
2017-12-16T12:42:14.500Z,8.50
2017-12-16T12:43:20.136Z,9.50
2017-12-16T12:44:25.795Z,8.50
2017-12-16T12:45:31.203Z,9.50
2017-12-16T12:46:36.527Z,9.00
2017-12-16T12:47:42.432Z,8.50
2017-12-16T12:48:47.496Z,15.00
2017-12-16T12:49:52.809Z,8.00
2017-12-16T12:50:57.929Z,7.50
2017-12-16T12:52:03.431Z,13.00
2017-12-16T12:53:08.816Z,10.00
2017-12-16T12:54:13.600Z,6.00
2017-12-16T12:55:17.240Z,9.00
2017-12-16T12:56:21.064Z,6.00
2017-12-16T12:57:25.918Z,7.00
2017-12-16T12:58:31.173Z,9.50
2017-12-16T12:59:36.494Z,8.00
2017-12-16T13:00:42.874Z,9.50
2017-12-16T13:01:48.231Z,6.00
2017-12-16T13:02:53.690Z,5.50
2017-12-16T13:03:59.831Z,6.00
2017-12-16T13:05:06.104Z,7.00
2017-12-16T13:06:12.413Z,14.50
2017-12-16T13:07:17.668Z,9.00
2017-12-16T13:08:21.785Z,8.00
2017-12-16T13:09:26.780Z,10.00
2017-12-16T13:10:31.043Z,11.50
2017-12-16T13:11:35.720Z,9.00
2017-12-16T13:12:40.610Z,4.00
2017-12-16T13:13:47.002Z,8.00
2017-12-16T13:14:52.036Z,6.00
2017-12-16T13:15:58.446Z,10.00
2017-12-16T13:17:04.663Z,7.50
2017-12-16T13:18:09.967Z,8.50
2017-12-16T13:19:15.285Z,5.00
2017-12-16T13:20:20.305Z,9.00
2017-12-16T13:21:24.419Z,7.00
2017-12-16T13:22:27.628Z,7.50
2017-12-16T13:23:31.832Z,7.00
2017-12-16T13:24:35.440Z,8.50
2017-12-16T13:25:40.492Z,11.50
2017-12-16T13:26:45.951Z,8.00
2017-12-16T13:27:51.381Z,8.50
2017-12-16T13:29:01.012Z,7.50
2017-12-16T13:30:06.171Z,8.00
2017-12-16T13:31:11.635Z,8.50
2017-12-16T13:32:17.067Z,7.50
2017-12-16T13:33:23.764Z,11.50
2017-12-16T13:34:28.965Z,8.50
2017-12-16T13:35:32.502Z,10.00
2017-12-16T13:36:37.713Z,7.00
2017-12-16T13:37:42.988Z,6.00
2017-12-16T13:38:48.239Z,4.50
2017-12-16T13:39:54.704Z,12.00
2017-12-16T13:41:01.543Z,8.50